createdAt,value
2023-02-01T00:00:12.801Z,75.56
2023-02-01T00:03:02.089Z,76.23
2023-02-01T00:05:33.143Z,76.53
2023-02-01T00:08:02.396Z,76.68
2023-02-01T00:10:31.990Z,76.91
2023-02-01T00:13:01.161Z,76.75
2023-02-01T00:15:30.730Z,76.77
2023-02-01T00:18:00.031Z,77.15
2023-02-01T00:20:29.570Z,77.46
2023-02-01T00:23:00.222Z,77.83
2023-02-01T00:25:29.936Z,77.59
2023-02-01T00:28:00.516Z,77.78
2023-02-01T00:30:30.109Z,77.84
2023-02-01T00:32:59.326Z,77.66
2023-02-01T00:35:28.929Z,77.77
2023-02-01T00:38:00.665Z,77.86
2023-02-01T00:40:30.199Z,77.21
2023-02-01T00:42:59.713Z,76.71
2023-02-01T00:45:29.281Z,77.18
2023-02-01T00:47:58.518Z,76.90
2023-02-01T00:50:28.091Z,77.18
2023-02-01T00:52:57.390Z,76.38
2023-02-01T00:55:28.438Z,76.19
2023-02-01T00:57:57.674Z,76.39
2023-02-01T01:00:27.282Z,76.88
2023-02-01T01:02:57.120Z,77.15
2023-02-01T01:05:28.740Z,77.12
2023-02-01T01:07:57.961Z,77.97
2023-02-01T01:10:29.023Z,77.29
2023-02-01T01:12:58.328Z,77.54
2023-02-01T01:15:27.882Z,77.03
2023-02-01T01:17:57.198Z,77.04
2023-02-01T01:20:26.725Z,76.40
2023-02-01T01:22:55.996Z,77.31
2023-02-01T01:25:25.527Z,77.30
2023-02-01T01:27:56.232Z,77.56
2023-02-01T01:30:25.843Z,77.53
2023-02-01T01:32:55.190Z,77.50
2023-02-01T01:35:24.710Z,77.63
2023-02-01T01:37:53.956Z,77.23
2023-02-01T01:40:23.737Z,77.77
2023-02-01T01:42:55.691Z,78.05
2023-02-01T01:45:28.343Z,78.53
2023-02-01T01:47:58.179Z,78.73
2023-02-01T01:50:28.980Z,77.81
2023-02-01T01:52:58.552Z,78.38
2023-02-01T01:55:28.719Z,78.70
2023-02-01T01:57:58.944Z,77.79
2023-02-01T02:00:30.096Z,78.17
2023-02-01T02:03:00.037Z,78.35
2023-02-01T02:05:30.423Z,78.14
2023-02-01T02:08:00.926Z,78.08
2023-02-01T02:10:44.270Z,78.10
2023-02-01T02:13:13.598Z,77.76
2023-02-01T02:15:46.109Z,77.91
2023-02-01T02:18:17.196Z,77.83
2023-02-01T02:20:54.060Z,78.56
2023-02-01T02:23:44.038Z,78.19
2023-02-01T02:26:37.571Z,78.46
2023-02-01T02:29:24.481Z,78.47
2023-02-01T02:32:00.784Z,78.54
2023-02-01T02:34:31.982Z,78.43
2023-02-01T02:37:03.836Z,78.75
2023-02-01T02:39:37.264Z,78.93
2023-02-01T02:42:26.109Z,78.81
2023-02-01T02:45:25.036Z,78.82
2023-02-01T02:47:55.894Z,79.15
2023-02-01T02:50:45.504Z,79.26
2023-02-01T02:53:33.867Z,79.06
2023-02-01T02:56:20.180Z,78.23
2023-02-01T02:59:07.169Z,78.76
2023-02-01T03:01:53.722Z,79.19
2023-02-01T03:04:24.635Z,79.01
2023-02-01T03:06:55.798Z,80.01
2023-02-01T03:09:25.549Z,80.55
2023-02-01T03:12:08.989Z,80.49
2023-02-01T03:14:38.547Z,80.44
2023-02-01T03:17:08.684Z,80.84
2023-02-01T03:19:39.116Z,80.51
2023-02-01T03:22:10.405Z,81.59
2023-02-01T03:24:41.138Z,81.21
2023-02-01T03:27:11.781Z,81.65
2023-02-01T03:29:42.700Z,82.19
2023-02-01T03:32:11.941Z,82.58
2023-02-01T03:34:41.533Z,82.03
2023-02-01T03:37:12.657Z,82.32
2023-02-01T03:39:42.873Z,83.21
2023-02-01T03:42:13.157Z,83.82
2023-02-01T03:44:43.965Z,83.47
2023-02-01T03:47:14.568Z,83.47
2023-02-01T03:49:44.606Z,83.98
2023-02-01T03:52:16.207Z,84.68
2023-02-01T03:54:45.737Z,84.52
2023-02-01T03:57:15.317Z,84.61
2023-02-01T03:59:45.278Z,83.64
2023-02-01T04:02:14.551Z,83.63
2023-02-01T04:04:44.176Z,84.25
2023-02-01T04:07:14.900Z,83.85
2023-02-01T04:09:44.555Z,84.52
2023-02-01T04:12:13.728Z,84.90
2023-02-01T04:14:43.309Z,85.01
2023-02-01T04:17:12.587Z,84.76
2023-02-01T04:19:42.267Z,84.62
2023-02-01T04:22:11.494Z,85.41
2023-02-01T04:24:42.631Z,85.52
2023-02-01T04:27:11.942Z,85.44
2023-02-01T04:29:42.128Z,85.80
2023-02-01T04:32:11.402Z,85.25
2023-02-01T04:34:40.932Z,85.54
2023-02-01T04:37:10.245Z,85.39
2023-02-01T04:39:39.804Z,85.32
2023-02-01T04:42:10.990Z,85.87
2023-02-01T04:44:42.851Z,85.51
2023-02-01T04:47:12.139Z,85.47
2023-02-01T04:49:41.679Z,85.42
2023-02-01T04:52:10.929Z,85.09
2023-02-01T04:54:40.522Z,84.91
2023-02-01T04:57:12.419Z,85.45
2023-02-01T04:59:42.033Z,85.39
2023-02-01T05:02:11.339Z,84.90
2023-02-01T05:04:41.468Z,85.05
2023-02-01T05:07:10.859Z,85.31
2023-02-01T05:09:40.397Z,85.54
2023-02-01T05:12:29.221Z,85.06
2023-02-01T05:14:58.773Z,85.66
2023-02-01T05:17:28.012Z,85.87
2023-02-01T05:19:57.538Z,86.16
2023-02-01T05:22:26.802Z,86.44
2023-02-01T05:24:56.370Z,86.09
2023-02-01T05:27:27.049Z,85.65
2023-02-01T05:29:56.623Z,85.62
2023-02-01T05:32:25.899Z,84.89
2023-02-01T05:34:55.472Z,85.57
2023-02-01T05:37:24.742Z,84.49
2023-02-01T05:39:54.423Z,84.70
2023-02-01T05:42:23.665Z,85.45
2023-02-01T05:44:54.785Z,84.43
2023-02-01T05:47:24.072Z,85.21
2023-02-01T05:49:53.654Z,84.51
2023-02-01T05:52:22.998Z,85.55
2023-02-01T05:54:53.766Z,85.89
2023-02-01T05:57:23.077Z,85.85
2023-02-01T05:59:52.779Z,85.52
2023-02-01T06:02:25.318Z,85.60
2023-02-01T06:04:55.179Z,85.97
2023-02-01T06:07:24.761Z,85.64
2023-02-01T06:09:54.288Z,84.92
2023-02-01T06:12:23.509Z,85.88
2023-02-01T06:14:53.045Z,84.92
2023-02-01T06:17:23.862Z,85.62
2023-02-01T06:19:53.595Z,85.28
2023-02-01T06:22:23.650Z,85.26
2023-02-01T06:24:53.263Z,85.83
2023-02-01T06:27:22.475Z,85.32
2023-02-01T06:29:52.128Z,85.06
2023-02-01T06:32:21.337Z,85.61
2023-02-01T06:34:53.622Z,85.52
2023-02-01T06:37:23.022Z,85.48
2023-02-01T06:39:52.752Z,85.15
2023-02-01T06:42:22.102Z,85.45
2023-02-01T06:44:51.675Z,85.82
2023-02-01T06:47:20.923Z,85.43
2023-02-01T06:49:50.587Z,85.45
2023-02-01T06:52:21.329Z,84.98
2023-02-01T06:54:50.950Z,86.01
2023-02-01T06:57:20.183Z,85.56
2023-02-01T06:59:49.791Z,84.75
2023-02-01T07:02:19.181Z,85.07
2023-02-01T07:04:49.441Z,85.82
2023-02-01T07:07:20.693Z,85.63
2023-02-01T07:09:51.973Z,86.12
2023-02-01T07:12:23.407Z,86.59
2023-02-01T07:14:53.039Z,86.35
2023-02-01T07:17:22.297Z,85.92
2023-02-01T07:19:51.927Z,86.00
2023-02-01T07:22:21.189Z,86.26
2023-02-01T07:24:52.246Z,85.43
2023-02-01T07:27:22.257Z,86.36
2023-02-01T07:29:51.888Z,86.07
2023-02-01T07:32:21.103Z,85.95
2023-02-01T07:34:50.734Z,86.30
2023-02-01T07:37:19.907Z,86.34
2023-02-01T07:39:49.503Z,85.86
2023-02-01T07:42:20.197Z,85.90
2023-02-01T07:44:49.880Z,86.65
2023-02-01T07:47:19.225Z,86.93
2023-02-01T07:49:48.861Z,86.93
2023-02-01T07:52:18.086Z,86.28
2023-02-01T07:54:47.670Z,86.05
2023-02-01T07:57:16.952Z,85.96
2023-02-01T08:00:01.710Z,86.02
2023-02-01T08:02:30.983Z,85.86
2023-02-01T08:05:00.720Z,85.84
2023-02-01T08:07:29.904Z,85.15
2023-02-01T08:09:59.858Z,85.47
2023-02-01T08:12:29.252Z,85.35
2023-02-01T08:15:00.296Z,85.09
2023-02-01T08:17:30.352Z,84.45
2023-02-01T08:19:59.959Z,85.36
2023-02-01T08:22:29.153Z,84.63
2023-02-01T08:25:02.404Z,84.46
2023-02-01T08:27:31.716Z,84.86
2023-02-01T08:30:02.832Z,84.75
2023-02-01T08:32:32.112Z,84.92
2023-02-01T08:35:01.687Z,84.25
2023-02-01T08:37:30.997Z,83.87
2023-02-01T08:40:00.690Z,83.89
2023-02-01T08:42:47.271Z,83.43
2023-02-01T08:45:18.609Z,83.53
2023-02-01T08:47:48.273Z,83.03
2023-02-01T08:50:18.383Z,83.45
2023-02-01T08:52:47.677Z,83.23
2023-02-01T08:55:17.435Z,83.09
2023-02-01T08:57:46.714Z,83.32
2023-02-01T09:00:17.570Z,83.47
2023-02-01T09:02:48.399Z,83.58
2023-02-01T09:05:20.404Z,82.68
2023-02-01T09:07:49.586Z,82.92
2023-02-01T09:10:33.521Z,82.80
2023-02-01T09:13:04.215Z,82.67
2023-02-01T09:15:33.928Z,82.73
2023-02-01T09:18:04.627Z,81.99
2023-02-01T09:20:34.214Z,81.92
2023-02-01T09:23:03.404Z,81.02
2023-02-01T09:25:32.929Z,80.41
2023-02-01T09:28:02.175Z,81.56
2023-02-01T09:30:31.719Z,80.65
2023-02-01T09:33:01.002Z,81.21
2023-02-01T09:35:31.990Z,80.05
2023-02-01T09:38:01.256Z,80.60
2023-02-01T09:40:30.821Z,80.40
2023-02-01T09:43:03.317Z,80.04
2023-02-01T09:45:34.767Z,79.71
2023-02-01T09:48:05.581Z,80.34
2023-02-01T09:50:38.488Z,80.02
2023-02-01T09:53:08.279Z,79.80
2023-02-01T09:55:39.401Z,79.18
2023-02-01T09:58:08.987Z,79.94
2023-02-01T10:00:39.149Z,79.71
2023-02-01T10:03:10.501Z,79.05
2023-02-01T10:05:44.774Z,79.48
2023-02-01T10:08:15.383Z,79.55
2023-02-01T10:10:46.717Z,79.54
2023-02-01T10:13:22.033Z,79.94
2023-02-01T10:15:56.695Z,78.74
2023-02-01T10:18:29.855Z,78.00
2023-02-01T10:21:03.930Z,78.86
2023-02-01T10:23:37.594Z,79.18
2023-02-01T10:26:08.475Z,79.89
2023-02-01T10:28:37.792Z,79.74
2023-02-01T10:31:07.515Z,79.96
2023-02-01T10:33:37.730Z,79.54
2023-02-01T10:36:18.118Z,80.06
2023-02-01T10:38:47.479Z,80.33
2023-02-01T10:41:18.012Z,80.63
2023-02-01T10:43:47.484Z,80.72
2023-02-01T10:46:17.008Z,80.93
2023-02-01T10:48:46.225Z,80.76
2023-02-01T10:51:17.530Z,80.45
2023-02-01T10:53:48.564Z,79.92
2023-02-01T10:56:21.621Z,79.81
2023-02-01T10:58:50.897Z,80.03
2023-02-01T11:01:20.797Z,79.68
2023-02-01T11:03:54.566Z,79.87
2023-02-01T11:06:30.371Z,79.70
2023-02-01T11:09:00.241Z,80.21
2023-02-01T11:11:30.236Z,79.23
2023-02-01T11:14:00.363Z,79.63
2023-02-01T11:16:35.359Z,79.18
2023-02-01T11:19:04.657Z,79.86
2023-02-01T11:21:35.745Z,79.45
2023-02-01T11:24:05.276Z,78.88
2023-02-01T11:26:35.132Z,79.06
2023-02-01T11:29:05.865Z,78.77
2023-02-01T11:31:35.499Z,79.30
2023-02-01T11:34:08.010Z,79.40
2023-02-01T11:36:38.980Z,79.51
2023-02-01T11:39:18.198Z,78.95
2023-02-01T11:41:59.242Z,79.86
2023-02-01T11:44:45.970Z,79.57
2023-02-01T11:47:26.271Z,79.44
2023-02-01T11:49:56.265Z,79.59
2023-02-01T11:52:32.745Z,79.70
2023-02-01T11:55:05.800Z,79.51
2023-02-01T11:57:43.204Z,79.68
2023-02-01T12:00:17.520Z,80.26
2023-02-01T12:03:02.760Z,80.05
2023-02-01T12:05:37.548Z,79.91
2023-02-01T12:08:12.352Z,79.84
2023-02-01T12:10:45.401Z,79.50
2023-02-01T12:13:17.066Z,79.67
2023-02-01T12:15:49.631Z,78.56
2023-02-01T12:18:33.895Z,78.63
2023-02-01T12:21:07.396Z,79.17
2023-02-01T12:23:43.838Z,78.78
2023-02-01T12:26:20.041Z,78.97
2023-02-01T12:29:16.360Z,79.26
2023-02-01T12:31:48.771Z,79.72
2023-02-01T12:34:23.288Z,80.38
2023-02-01T12:36:54.512Z,80.22
2023-02-01T12:39:27.052Z,80.54
2023-02-01T12:41:58.048Z,80.52
2023-02-01T12:44:33.909Z,79.95
2023-02-01T12:47:03.847Z,79.40
2023-02-01T12:49:36.224Z,79.08
2023-02-01T12:52:07.576Z,79.17
2023-02-01T12:54:38.911Z,79.02
2023-02-01T12:57:09.314Z,78.95
2023-02-01T12:59:40.498Z,79.70
2023-02-01T13:02:14.057Z,80.35
2023-02-01T13:04:45.437Z,81.27
2023-02-01T13:07:17.739Z,80.97
2023-02-01T13:09:51.781Z,83.14
2023-02-01T13:12:21.816Z,82.00
2023-02-01T13:14:52.299Z,83.29
2023-02-01T13:17:24.531Z,83.18
2023-02-01T13:19:55.258Z,82.30
2023-02-01T13:22:26.640Z,81.81
2023-02-01T13:24:58.763Z,81.43
2023-02-01T13:27:31.445Z,82.17
2023-02-01T13:30:02.247Z,84.55
2023-02-01T13:33:50.133Z,85.82
2023-02-01T13:35:38.737Z,86.68
2023-02-01T13:38:23.671Z,86.87
2023-02-01T13:40:56.228Z,86.79
2023-02-01T13:43:26.048Z,87.29
2023-02-01T13:45:56.976Z,86.67
2023-02-01T13:48:27.396Z,86.50
2023-02-01T13:50:57.394Z,86.76
2023-02-01T13:53:29.293Z,87.49
2023-02-01T13:56:01.242Z,86.89
2023-02-01T13:58:34.776Z,87.22
2023-02-01T14:01:23.163Z,86.28
2023-02-01T14:03:52.623Z,86.34
2023-02-01T14:06:39.408Z,86.42
2023-02-01T14:09:15.138Z,87.13
2023-02-01T14:11:47.369Z,85.90
2023-02-01T14:14:47.164Z,85.97
2023-02-01T14:17:34.268Z,86.23
2023-02-01T14:20:22.216Z,87.29
2023-02-01T14:22:52.051Z,86.80
2023-02-01T14:25:21.841Z,85.70
2023-02-01T14:27:53.163Z,85.31
2023-02-01T14:30:25.622Z,85.18
2023-02-01T14:32:55.484Z,85.05
2023-02-01T14:35:27.104Z,86.00
2023-02-01T14:38:01.011Z,84.38
2023-02-01T14:40:30.587Z,85.11
2023-02-01T14:43:01.742Z,84.86
2023-02-01T14:45:51.263Z,86.07
2023-02-01T14:48:39.211Z,86.23
2023-02-01T14:51:08.565Z,85.25
2023-02-01T14:53:38.659Z,85.35
2023-02-01T14:56:10.259Z,85.51
2023-02-01T14:58:42.607Z,86.05
2023-02-01T15:01:20.861Z,85.42
2023-02-01T15:03:52.451Z,86.36
2023-02-01T15:06:24.555Z,86.50
2023-02-01T15:08:55.759Z,85.49
2023-02-01T15:11:25.086Z,86.17
2023-02-01T15:13:57.324Z,85.56
2023-02-01T15:16:27.294Z,86.41
2023-02-01T15:19:10.740Z,85.40
2023-02-01T15:21:47.598Z,84.23
2023-02-01T15:24:20.530Z,84.99
2023-02-01T15:26:50.057Z,85.39
2023-02-01T15:29:21.294Z,83.87
2023-02-01T15:31:51.609Z,84.28
2023-02-01T15:34:21.793Z,83.07
2023-02-01T15:37:02.541Z,82.50
2023-02-01T15:39:33.614Z,84.31
2023-02-01T15:42:03.476Z,84.28
2023-02-01T15:44:36.561Z,83.55
2023-02-01T15:47:11.909Z,82.98
2023-02-01T15:49:41.610Z,82.49
2023-02-01T15:52:29.532Z,82.63
2023-02-01T15:54:59.598Z,85.19
2023-02-01T15:57:31.869Z,83.10
2023-02-01T16:00:04.412Z,82.38
2023-02-01T16:02:36.389Z,81.91
2023-02-01T16:05:06.910Z,81.54
2023-02-01T16:07:36.359Z,81.51
2023-02-01T16:10:23.031Z,81.51
2023-02-01T16:12:55.529Z,82.36
2023-02-01T16:15:26.825Z,81.79
2023-02-01T16:17:56.171Z,82.85
2023-02-01T16:20:25.871Z,82.52
2023-02-01T16:22:55.104Z,82.17
2023-02-01T16:25:25.218Z,81.53
2023-02-01T16:27:55.124Z,81.48
2023-02-01T16:30:31.357Z,81.33
2023-02-01T16:33:03.985Z,81.39
2023-02-01T16:35:37.980Z,81.22
2023-02-01T16:38:17.437Z,81.67
2023-02-01T16:41:01.996Z,82.15
2023-02-01T16:43:40.173Z,83.42
2023-02-01T16:46:25.989Z,84.61
2023-02-01T16:49:04.499Z,84.63
2023-02-01T16:51:36.481Z,84.33
2023-02-01T16:54:06.760Z,83.10
2023-02-01T16:56:37.137Z,82.65
2023-02-01T16:59:09.858Z,83.17
2023-02-01T17:01:44.815Z,83.76
2023-02-01T17:04:17.065Z,83.60
2023-02-01T17:06:54.160Z,82.67
2023-02-01T17:09:33.731Z,83.54
2023-02-01T17:12:04.013Z,83.90
2023-02-01T17:14:37.365Z,83.01
2023-02-01T17:17:10.060Z,84.22
2023-02-01T17:19:39.687Z,83.18
2023-02-01T17:22:11.345Z,83.39
2023-02-01T17:24:49.200Z,83.44
2023-02-01T17:27:21.435Z,83.33
2023-02-01T17:29:51.855Z,82.44
2023-02-01T17:32:23.951Z,83.30
2023-02-01T17:35:00.892Z,83.25
2023-02-01T17:37:32.185Z,82.82
2023-02-01T17:40:02.099Z,84.26
2023-02-01T17:42:32.283Z,83.88
2023-02-01T17:45:04.033Z,83.32
2023-02-01T17:47:41.930Z,82.64
2023-02-01T17:50:12.672Z,83.55
2023-02-01T17:52:42.693Z,83.35
2023-02-01T17:55:23.685Z,83.75
2023-02-01T17:57:53.764Z,82.90
2023-02-01T18:00:23.647Z,82.83
2023-02-01T18:02:56.419Z,83.59
2023-02-01T18:05:28.299Z,83.85
2023-02-01T18:07:58.183Z,83.45
2023-02-01T18:10:27.625Z,83.86
2023-02-01T18:12:57.600Z,83.29
2023-02-01T18:15:29.681Z,84.59
2023-02-01T18:18:01.133Z,84.43
2023-02-01T18:20:30.763Z,83.13
2023-02-01T18:23:00.512Z,83.15
2023-02-01T18:25:30.464Z,83.28
2023-02-01T18:28:00.254Z,82.65
2023-02-01T18:30:30.936Z,82.91
2023-02-01T18:33:02.071Z,83.37
2023-02-01T18:39:58.642Z,82.21
2023-02-01T18:50:37.468Z,83.63
2023-02-01T18:53:07.593Z,83.29
2023-02-01T18:55:36.844Z,83.07
2023-02-01T18:58:07.415Z,82.64
2023-02-01T19:00:37.010Z,82.54
2023-02-01T19:03:06.649Z,84.27
2023-02-01T19:05:37.513Z,84.81
2023-02-01T19:08:07.168Z,83.76
2023-02-01T19:10:39.051Z,84.02
2023-02-01T19:13:10.291Z,84.39
2023-02-01T19:15:40.505Z,83.08
2023-02-01T19:18:10.221Z,82.42
2023-02-01T19:20:45.122Z,83.55
2023-02-01T19:23:14.943Z,83.21
2023-02-01T19:25:44.843Z,82.82
2023-02-01T19:28:14.764Z,82.77
2023-02-01T19:30:45.144Z,82.80
2023-02-01T19:33:14.868Z,82.85
2023-02-01T19:35:45.590Z,82.36
2023-02-01T19:38:15.614Z,81.61
2023-02-01T19:40:44.953Z,82.78
2023-02-01T19:43:14.535Z,83.81
2023-02-01T19:45:44.532Z,82.95
2023-02-01T19:48:15.877Z,82.35
2023-02-01T19:50:46.991Z,83.18
2023-02-01T19:53:16.695Z,83.48
2023-02-01T19:55:46.408Z,82.59
2023-02-01T19:58:16.070Z,82.96
2023-02-01T20:00:44.460Z,83.38
2023-02-01T20:03:14.165Z,83.11
2023-02-01T20:05:43.363Z,82.54
2023-02-01T20:08:14.432Z,83.46
2023-02-01T20:10:45.108Z,83.12
2023-02-01T20:13:14.722Z,83.51
2023-02-01T20:15:44.052Z,83.86
2023-02-01T20:18:13.737Z,82.94
2023-02-01T20:20:43.023Z,82.92
2023-02-01T20:23:14.100Z,84.67
2023-02-01T20:25:44.164Z,84.35
2023-02-01T20:28:13.733Z,83.62
2023-02-01T20:30:45.076Z,83.21
2023-02-01T20:33:14.712Z,83.17
2023-02-01T20:35:45.551Z,83.59
2023-02-01T20:38:16.560Z,82.15
2023-02-01T20:40:45.773Z,83.13
2023-02-01T20:43:15.390Z,83.77
2023-02-01T20:45:44.800Z,82.81
2023-02-01T20:48:15.382Z,82.48
2023-02-01T20:50:45.279Z,83.26
2023-02-01T20:53:26.047Z,83.04
2023-02-01T20:55:59.417Z,82.94
2023-02-01T20:58:29.033Z,83.21
2023-02-01T21:00:58.348Z,83.20
2023-02-01T21:03:27.975Z,83.36
2023-02-01T21:05:57.783Z,82.99
2023-02-01T21:08:28.160Z,82.51
2023-02-01T21:10:59.391Z,83.06
2023-02-01T21:13:30.426Z,82.82
2023-02-01T21:15:59.818Z,82.45
2023-02-01T21:18:29.503Z,82.20
2023-02-01T21:20:59.325Z,82.26
2023-02-01T21:23:28.795Z,83.30
2023-02-01T21:26:00.174Z,82.43
2023-02-01T21:28:29.803Z,82.06
2023-02-01T21:31:00.212Z,82.23
2023-02-01T21:33:30.010Z,82.67
2023-02-01T21:35:59.305Z,81.97
2023-02-01T21:38:29.026Z,81.76
2023-02-01T21:41:18.166Z,81.91
2023-02-01T21:43:48.002Z,81.99
2023-02-01T21:46:18.332Z,81.91
2023-02-01T21:49:05.233Z,81.54
2023-02-01T21:51:38.197Z,81.72
2023-02-01T21:54:08.795Z,82.68
2023-02-01T21:56:39.768Z,82.29
2023-02-01T21:59:10.280Z,82.53
2023-02-01T22:01:39.677Z,83.48
2023-02-01T22:04:10.357Z,83.19
2023-02-01T22:06:41.446Z,82.78
2023-02-01T22:09:12.616Z,81.99
2023-02-01T22:11:43.401Z,82.03
2023-02-01T22:14:12.966Z,82.29
2023-02-01T22:16:42.610Z,82.19
2023-02-01T22:19:12.609Z,82.28
2023-02-01T22:21:42.243Z,81.69
2023-02-01T22:24:12.070Z,82.60
2023-02-01T22:26:43.114Z,82.44
2023-02-01T22:29:14.859Z,81.87
2023-02-01T22:31:44.445Z,82.19
2023-02-01T22:34:14.260Z,82.30
2023-02-01T22:36:43.768Z,82.29
2023-02-01T22:39:13.575Z,82.22
2023-02-01T22:41:44.430Z,82.16
2023-02-01T22:44:14.195Z,83.59
2023-02-01T22:46:43.633Z,84.20
2023-02-01T22:49:13.442Z,83.39
2023-02-01T22:51:42.770Z,84.99
2023-02-01T22:54:15.461Z,83.92
2023-02-01T22:56:46.426Z,84.52
2023-02-01T22:59:16.441Z,84.63
2023-02-01T23:01:45.864Z,84.19
2023-02-01T23:04:16.357Z,83.29
2023-02-01T23:06:45.969Z,84.70
2023-02-01T23:09:22.373Z,85.11
2023-02-01T23:12:14.099Z,86.02
2023-02-01T23:15:17.847Z,84.02
2023-02-01T23:17:55.645Z,82.64
2023-02-01T23:20:26.110Z,83.36
2023-02-01T23:22:55.823Z,83.29
2023-02-01T23:25:25.403Z,82.47
2023-02-01T23:27:56.933Z,82.06
2023-02-01T23:30:26.185Z,82.54
2023-02-01T23:32:55.878Z,82.69
2023-02-01T23:35:25.495Z,82.06
2023-02-01T23:37:55.447Z,81.77
2023-02-01T23:40:24.788Z,81.49
2023-02-01T23:43:08.089Z,81.66
2023-02-01T23:45:38.904Z,81.35
2023-02-01T23:48:08.684Z,81.35
2023-02-01T23:50:38.087Z,81.60
2023-02-01T23:53:07.836Z,81.62
2023-02-01T23:55:37.127Z,81.48
2023-02-01T23:58:06.864Z,81.21
